Time;durP1;ratioP1;P1;durP2;ratioP2;P2;SDS_P1;SDS_P2;PMS_P1;PMS_P2;Temp;Humidity;BMP_temperature;BMP_pressure;BME280_temperature;BME280_humidity;BME280_pressure;Samples;Min_cycle;Max_cycle;Signal;HPM_P1;HPM_P2
2021/12/05 00:17:23;;;;;;;26.98;21.77;;;;;;;1.45;96.21;97613.88;2065536;28;20221;-74
2021/12/05 00:18:50;;;;;;;27.13;21.45;;;;;;;1.45;95.89;97613.88;2103353;28;20695;-76
2021/12/05 00:21:34;;;;;;;27.48;21.35;;;;;;;1.44;95.85;97614.91;2072086;28;20310;-75
2021/12/05 00:22:38;;;;;;;28.40;21.33;;;;;;;1.46;94.92;97612.03;2098412;28;20664;-75
2021/12/05 00:23:43;;;;;;;26.98;20.60;;;;;;;1.46;94.18;97622.53;2094843;28;20226;-75
2021/12/05 00:24:48;;;;;;;26.55;21.05;;;;;;;1.42;94.09;97615.19;2094809;28;20570;-75
2021/12/05 00:25:52;;;;;;;24.40;20.55;;;;;;;1.46;93.83;97617.28;2095151;28;20229;-75
2021/12/05 00:26:58;;;;;;;28.40;21.27;;;;;;;1.47;93.66;97613.59;2102982;28;20757;-75
2021/12/05 00:28:33;;;;;;;28.98;21.58;;;;;;;1.47;93.33;97611.75;2095166;28;20257;-75
2021/12/05 00:29:36;;;;;;;25.55;20.88;;;;;;;1.48;93.39;97610.72;2089879;28;20222;-75
2021/12/05 00:31:01;;;;;;;28.15;20.17;;;;;;;1.48;93.01;97600.19;2095085;28;20256;-75
2021/12/05 00:32:15;;;;;;;27.17;20.85;;;;;;;1.49;92.83;97606.25;2095779;28;20664;-75
2021/12/05 00:33:35;;;;;;;25.90;21.48;;;;;;;1.46;93.06;97602.28;2103334;28;20224;-75
2021/12/05 00:36:48;;;;;;;26.33;21.00;;;;;;;1.48;93.92;97612.53;2094532;28;20214;-75
2021/12/05 00:40:54;;;;;;;27.40;21.80;;;;;;;1.48;94.57;97600.19;2103537;28;20294;-75
2021/12/05 00:53:13;;;;;;;25.58;21.02;;;;;;;1.46;94.26;97602.28;2095899;28;20625;-74
2021/12/05 00:55:59;;;;;;;27.02;21.60;;;;;;;1.49;94.06;97612.28;2084574;28;20761;-76
2021/12/05 01:02:46;;;;;;;25.08;21.60;;;;;;;1.50;93.36;97619.09;2079732;28;20237;-73
2021/12/05 01:05:29;;;;;;;32.78;23.08;;;;;;;1.51;93.46;97617.25;2095590;28;20225;-73
2021/12/05 01:09:29;;;;;;;27.77;21.58;;;;;;;1.51;94.13;97604.91;2085189;28;20306;-75
2021/12/05 01:12:13;;;;;;;26.42;21.85;;;;;;;1.53;93.84;97613.28;2053517;28;20256;-74
2021/12/05 01:13:29;;;;;;;25.50;21.95;;;;;;;1.51;93.48;97604.91;2088368;28;20228;-74
2021/12/05 01:14:34;;;;;;;25.05;21.17;;;;;;;1.51;94.01;97606.75;2090072;28;20218;-74
2021/12/05 01:15:35;;;;;;;27.38;21.83;;;;;;;1.49;94.59;97608.88;2093768;28;20221;-75
2021/12/05 01:16:38;;;;;;;24.43;21.23;;;;;;;1.50;94.29;97605.97;2093184;28;20245;-75
2021/12/05 01:17:59;;;;;;;26.35;21.77;;;;;;;1.48;93.97;97608.09;2084689;28;20850;-74
2021/12/05 01:19:02;;;;;;;26.42;22.13;;;;;;;1.48;94.00;97615.97;2084615;28;20730;-75
2021/12/05 01:20:08;;;;;;;23.77;21.15;;;;;;;1.50;93.92;97616.47;2093530;28;20252;-74
2021/12/05 01:21:16;;;;;;;26.40;21.77;;;;;;;1.51;93.70;97625.94;2092422;28;20240;-74
2021/12/05 01:22:19;;;;;;;24.90;21.95;;;;;;;1.48;94.13;97615.97;2085174;28;21468;-75
2021/12/05 01:23:30;;;;;;;27.20;22.67;;;;;;;1.47;94.23;97611.75;2101503;28;20274;-74
2021/12/05 01:24:45;;;;;;;24.70;22.02;;;;;;;1.48;94.11;97610.72;2091178;28;20214;-75
2021/12/05 01:25:54;;;;;;;24.17;21.58;;;;;;;1.50;93.82;97613.84;2078405;28;20391;-74
2021/12/05 01:27:02;;;;;;;25.45;21.77;;;;;;;1.50;93.70;97619.09;2077440;28;20232;-75
2021/12/05 01:28:11;;;;;;;29.42;21.17;;;;;;;1.49;94.06;97616.75;2085159;28;20237;-75
2021/12/05 01:29:28;;;;;;;27.15;21.73;;;;;;;1.49;94.39;97620.16;2084627;28;20271;-75
2021/12/05 01:30:39;;;;;;;28.88;22.45;;;;;;;1.51;94.92;97612.78;2084895;28;20572;-75
2021/12/05 01:31:52;;;;;;;24.27;21.73;;;;;;;1.52;94.46;97616.19;2085445;28;20227;-75
2021/12/05 01:33:04;;;;;;;26.55;22.17;;;;;;;1.51;94.79;97615.41;2084406;28;20313;-75
2021/12/05 01:34:16;;;;;;;25.75;20.77;;;;;;;1.51;94.02;97615.41;2077836;28;20231;-75
2021/12/05 01:35:29;;;;;;;26.10;22.15;;;;;;;1.50;94.40;97618.31;2077982;28;20606;-75
2021/12/05 01:36:36;;;;;;;26.27;21.60;;;;;;;1.45;94.64;97616.50;2078170;28;20701;-75
2021/12/05 01:37:56;;;;;;;28.88;21.90;;;;;;;1.46;94.99;97618.06;2076845;28;20230;-74
2021/12/05 01:39:05;;;;;;;25.90;22.80;;;;;;;1.47;95.57;97613.59;2070091;28;20242;-75
2021/12/05 01:42:08;;;;;;;28.58;23.02;;;;;;;1.43;95.19;97610.72;2072790;28;20592;-75
2021/12/05 01:47:36;;;;;;;24.73;22.05;;;;;;;1.38;96.45;97605.50;2063343;28;20241;-75
2021/12/05 01:56:10;;;;;;;26.88;22.27;;;;;;;1.42;99.27;97603.91;2040009;28;20700;-75
2021/12/05 01:58:46;;;;;;;24.30;21.77;;;;;;;1.40;99.64;97609.44;2060095;28;20664;-75
2021/12/05 02:01:28;;;;;;;26.58;22.13;;;;;;;1.34;99.73;97597.38;2064364;28;20216;-74
2021/12/05 02:11:20;;;;;;;26.85;22.38;;;;;;;1.29;100.00;97601.88;2048629;28;20236;-75
2021/12/05 02:15:27;;;;;;;24.48;21.80;;;;;;;1.31;100.00;97589.28;2065619;28;20614;-75
2021/12/05 02:30:13;;;;;;;23.85;21.33;;;;;;;1.22;100.00;97585.66;2058978;28;20229;-74
2021/12/05 02:31:36;;;;;;;24.58;21.35;;;;;;;1.18;100.00;97584.59;2056068;28;20220;-75
2021/12/05 02:32:57;;;;;;;24.08;21.52;;;;;;;1.16;100.00;97579.63;2059527;28;20224;-75
2021/12/05 02:34:20;;;;;;;24.42;21.75;;;;;;;1.18;100.00;97581.97;2056802;28;20240;-74
2021/12/05 02:35:43;;;;;;;25.42;22.23;;;;;;;1.16;100.00;97577.00;2064857;28;20682;-75
2021/12/05 02:37:03;;;;;;;29.00;23.92;;;;;;;1.13;100.00;97580.16;2062153;28;20258;-75
2021/12/05 02:41:13;;;;;;;24.45;21.88;;;;;;;1.15;100.00;97583.31;2037864;28;20246;-75
2021/12/05 02:42:22;;;;;;;25.13;22.30;;;;;;;1.16;100.00;97581.47;2054237;28;20259;-75
2021/12/05 02:43:29;;;;;;;24.80;22.13;;;;;;;1.15;100.00;97574.66;2068641;28;20224;-74
2021/12/05 02:44:30;;;;;;;26.83;22.00;;;;;;;1.13;100.00;97582.81;2071558;28;20279;-75
2021/12/05 02:45:33;;;;;;;25.10;21.83;;;;;;;1.13;100.00;97583.59;2070627;28;20227;-75
2021/12/05 02:46:34;;;;;;;26.60;22.73;;;;;;;1.13;100.00;97573.06;2070627;28;20668;-75
2021/12/05 02:47:37;;;;;;;25.27;22.67;;;;;;;1.13;100.00;97580.16;2070644;28;20232;-75
2021/12/05 02:48:41;;;;;;;28.38;22.60;;;;;;;1.13;100.00;97591.47;2062687;28;20311;-75
2021/12/05 02:49:46;;;;;;;26.25;22.65;;;;;;;1.14;100.00;97589.63;2063056;28;20284;-75
2021/12/05 02:50:51;;;;;;;24.08;21.48;;;;;;;1.10;100.00;97589.34;2063144;28;20319;-75
2021/12/05 02:51:58;;;;;;;24.75;21.02;;;;;;;1.11;100.00;97590.13;2062597;28;20235;-74
2021/12/05 02:53:07;;;;;;;23.23;20.58;;;;;;;1.11;100.00;97588.28;2070806;28;20561;-75
2021/12/05 02:54:14;;;;;;;24.48;21.45;;;;;;;1.11;100.00;97595.41;2070205;28;20224;-75
2021/12/05 02:55:25;;;;;;;26.38;22.58;;;;;;;1.12;100.00;97592.50;2070766;28;20220;-74
2021/12/05 02:56:31;;;;;;;27.42;21.40;;;;;;;1.13;100.00;97595.94;2070358;28;20282;-75
2021/12/05 02:57:50;;;;;;;26.63;21.77;;;;;;;1.13;100.00;97599.34;2079379;28;20219;-75
2021/12/05 02:58:55;;;;;;;25.02;22.42;;;;;;;1.13;100.00;97604.59;2068013;28;20227;-75
2021/12/05 02:59:57;;;;;;;28.58;21.80;;;;;;;1.12;100.00;97605.63;2062110;28;20315;-75
2021/12/05 03:01:09;;;;;;;24.45;21.85;;;;;;;1.13;100.00;97599.34;2072546;28;20220;-75
2021/12/05 03:02:15;;;;;;;24.77;22.05;;;;;;;1.14;100.00;97600.13;2062152;28;20228;-74
2021/12/05 03:03:25;;;;;;;24.50;21.67;;;;;;;1.13;100.00;97596.72;2063822;28;20768;-75
2021/12/05 03:04:31;;;;;;;23.92;21.45;;;;;;;1.18;100.00;97602.97;2085318;28;20553;-74
2021/12/05 03:05:32;;;;;;;24.75;21.55;;;;;;;1.17;100.00;97593.53;2077966;28;20310;-75
2021/12/05 03:06:34;;;;;;;25.73;21.90;;;;;;;1.17;100.00;97593.53;2070724;28;20267;-75
2021/12/05 03:07:40;;;;;;;24.98;22.38;;;;;;;1.14;100.00;97594.88;2071365;28;20471;-75
2021/12/05 03:08:44;;;;;;;27.35;22.75;;;;;;;1.12;100.00;97592.50;2063405;28;20683;-75
2021/12/05 03:09:45;;;;;;;27.98;22.70;;;;;;;1.15;100.00;97593.03;2062291;28;20224;-75
2021/12/05 03:10:50;;;;;;;26.60;22.37;;;;;;;1.12;100.00;97589.88;2061587;28;20304;-75
2021/12/05 03:11:52;;;;;;;29.95;22.75;;;;;;;1.13;100.00;97594.09;2062687;28;20233;-75
2021/12/05 03:12:54;;;;;;;27.20;21.90;;;;;;;1.15;100.00;97596.44;2058342;28;20229;-74
2021/12/05 03:13:55;;;;;;;23.88;21.40;;;;;;;1.16;100.00;97595.38;2079082;28;20302;-74
2021/12/05 03:15:06;;;;;;;25.75;22.10;;;;;;;1.21;100.00;97600.59;2077985;28;20220;-75
2021/12/05 03:16:09;;;;;;;25.70;22.08;;;;;;;1.22;100.00;97604.03;2070029;28;20238;-74
2021/12/05 03:17:11;;;;;;;28.77;23.00;;;;;;;1.18;100.00;97601.13;2070464;28;20335;-74
2021/12/05 03:18:15;;;;;;;26.65;22.08;;;;;;;1.17;100.00;97596.94;2062803;28;20233;-75
2021/12/05 03:19:18;;;;;;;28.75;22.65;;;;;;;1.18;100.00;97595.09;2079016;28;20208;-75
2021/12/05 03:20:20;;;;;;;24.98;22.40;;;;;;;1.20;100.00;97606.91;2078535;28;20302;-75
2021/12/05 03:21:23;;;;;;;28.08;22.98;;;;;;;1.16;100.00;97597.22;2070452;28;20223;-75
2021/12/05 03:22:24;;;;;;;25.33;22.67;;;;;;;1.19;100.00;97599.31;2070173;28;20243;-75
2021/12/05 03:23:28;;;;;;;24.88;21.80;;;;;;;1.22;100.00;97601.41;2070484;28;20235;-75
2021/12/05 03:24:31;;;;;;;29.02;22.88;;;;;;;1.19;100.00;97599.31;2070458;28;20645;-75
2021/12/05 03:25:34;;;;;;;26.55;23.48;;;;;;;1.20;100.00;97598.25;2070396;28;20217;-75
2021/12/05 03:26:40;;;;;;;26.60;21.83;;;;;;;1.20;100.00;97604.28;2078484;28;20219;-74
2021/12/05 03:27:42;;;;;;;25.83;21.33;;;;;;;1.18;100.00;97598.50;2077840;28;20238;-74
2021/12/05 03:28:49;;;;;;;25.85;22.10;;;;;;;1.16;100.00;97592.75;2070486;28;20322;-75
2021/12/05 03:29:51;;;;;;;25.75;22.60;;;;;;;1.19;100.00;97596.66;2070391;28;20224;-75
2021/12/05 03:30:54;;;;;;;26.23;22.77;;;;;;;1.18;100.00;97595.09;2061872;28;20225;-74
2021/12/05 03:31:56;;;;;;;28.50;22.30;;;;;;;1.17;100.00;97593.53;2062497;28;20228;-74
2021/12/05 03:33:01;;;;;;;27.08;22.08;;;;;;;1.13;100.00;97596.72;2070294;28;20224;-75
2021/12/05 03:34:04;;;;;;;25.48;22.70;;;;;;;1.12;100.00;97597.75;2062416;28;20221;-75
2021/12/05 03:35:08;;;;;;;29.05;22.80;;;;;;;1.15;100.00;97601.69;2078898;28;20364;-75
2021/12/05 03:36:10;;;;;;;25.55;22.00;;;;;;;1.20;100.00;97600.88;2077864;28;20224;-75
2021/12/05 03:37:12;;;;;;;29.67;22.40;;;;;;;1.19;100.00;97599.31;2062344;28;20344;-75
2021/12/05 03:38:16;;;;;;;32.35;22.25;;;;;;;1.19;100.00;97601.94;2062384;28;20726;-75
2021/12/05 03:39:21;;;;;;;32.47;22.38;;;;;;;1.14;100.00;97592.25;2062521;28;20240;-75
2021/12/05 03:40:26;;;;;;;28.23;23.52;;;;;;;1.11;100.00;97595.41;2072288;28;20231;-75
2021/12/05 03:41:27;;;;;;;23.67;20.75;;;;;;;1.08;100.00;97596.72;2069859;28;20251;-75
2021/12/05 03:42:30;;;;;;;27.52;21.88;;;;;;;1.09;100.00;97594.88;2064161;28;20228;-75
2021/12/05 03:43:31;;;;;;;26.92;21.60;;;;;;;1.09;100.00;97594.88;2062463;28;20237;-75
2021/12/05 03:44:37;;;;;;;26.35;21.33;;;;;;;1.10;100.00;97593.81;2058017;28;20244;-75
2021/12/05 03:45:41;;;;;;;26.33;21.08;;;;;;;1.07;100.00;97594.38;2078407;28;20273;-74
2021/12/05 03:46:49;;;;;;;24.90;22.17;;;;;;;1.08;100.00;97596.72;2077577;28;20223;-74
2021/12/05 03:47:50;;;;;;;24.73;21.75;;;;;;;1.07;100.00;97599.63;2070147;28;20693;-75
2021/12/05 03:48:57;;;;;;;23.27;20.83;;;;;;;1.09;100.00;97608.00;2062237;28;20232;-75
2021/12/05 03:49:59;;;;;;;25.00;22.17;;;;;;;1.10;100.00;97599.06;2078757;28;20246;-75
2021/12/05 03:51:01;;;;;;;23.80;21.20;;;;;;;1.11;100.00;97603.28;2078421;28;20235;-75
2021/12/05 03:52:09;;;;;;;25.83;22.20;;;;;;;1.11;100.00;97598.81;2062406;28;20611;-75
2021/12/05 03:53:11;;;;;;;24.35;21.75;;;;;;;1.10;100.00;97593.81;2063627;28;20228;-74
2021/12/05 03:54:13;;;;;;;25.13;22.42;;;;;;;1.11;100.00;97595.41;2062947;28;20239;-75
2021/12/05 03:55:16;;;;;;;25.15;22.10;;;;;;;1.17;100.00;97591.69;2062128;28;20262;-75
2021/12/05 03:56:18;;;;;;;23.90;21.30;;;;;;;1.13;100.00;97583.59;2062205;28;20320;-75
2021/12/05 03:57:19;;;;;;;23.38;21.00;;;;;;;1.17;100.00;97585.66;2062126;28;20232;-75
2021/12/05 03:58:22;;;;;;;23.50;20.85;;;;;;;1.11;100.00;97585.66;2062099;28;20224;-73
2021/12/05 03:59:27;;;;;;;24.25;21.08;;;;;;;1.11;100.00;97582.25;2073757;28;20224;-73
2021/12/05 04:00:38;;;;;;;23.17;20.70;;;;;;;1.06;100.00;97580.47;2069253;28;20224;-74
2021/12/05 04:01:40;;;;;;;23.73;21.13;;;;;;;1.00;100.00;97581.53;2056686;28;20233;-74
2021/12/05 04:02:42;;;;;;;27.02;21.38;;;;;;;0.99;100.00;97577.34;2055319;28;20237;-75
2021/12/05 04:03:45;;;;;;;22.92;19.88;;;;;;;0.94;100.00;97582.59;2062055;28;20274;-75
2021/12/05 04:04:47;;;;;;;23.42;20.95;;;;;;;0.92;100.00;97582.09;2062008;28;20231;-75
2021/12/05 04:05:49;;;;;;;23.30;20.90;;;;;;;0.91;100.00;97583.16;2054065;28;20228;-75
2021/12/05 04:06:55;;;;;;;23.88;21.10;;;;;;;0.96;100.00;97585.78;2062164;28;20285;-75
2021/12/05 04:07:58;;;;;;;26.02;22.23;;;;;;;0.94;100.00;97577.34;2084679;28;20254;-75
2021/12/05 04:09:03;;;;;;;23.52;21.17;;;;;;;0.90;100.00;97578.19;2078441;28;20600;-75
2021/12/05 04:10:06;;;;;;;23.00;20.70;;;;;;;0.89;100.00;97579.22;2070027;28;20567;-74
2021/12/05 04:11:16;;;;;;;23.88;21.02;;;;;;;0.87;100.00;97583.94;2061713;28;20240;-74
2021/12/05 04:12:18;;;;;;;24.30;21.10;;;;;;;0.85;100.00;97586.84;2062995;28;20287;-73
2021/12/05 04:13:20;;;;;;;26.02;20.77;;;;;;;0.80;100.00;97581.63;2070114;28;20231;-75
2021/12/05 04:14:22;;;;;;;23.33;20.80;;;;;;;0.80;100.00;97589.50;2070245;28;20219;-74
2021/12/05 04:15:24;;;;;;;25.50;21.77;;;;;;;0.80;100.00;97589.50;2069442;28;20224;-73
2021/12/05 04:16:27;;;;;;;25.80;20.88;;;;;;;0.77;100.00;97600.53;2062249;28;20705;-73
2021/12/05 04:17:28;;;;;;;23.15;20.75;;;;;;;0.74;100.00;97591.34;2078135;28;20227;-73
2021/12/05 04:18:32;;;;;;;23.83;21.25;;;;;;;0.72;100.00;97598.72;2077975;28;20223;-73
2021/12/05 04:19:34;;;;;;;23.90;21.40;;;;;;;0.72;100.00;97597.94;2062086;28;20224;-73
2021/12/05 04:20:37;;;;;;;24.90;22.20;;;;;;;0.69;100.00;97593.19;2062404;28;20617;-73
2021/12/05 04:21:40;;;;;;;25.73;21.88;;;;;;;0.67;100.00;97592.69;2055152;28;20229;-73
2021/12/05 04:22:46;;;;;;;24.30;21.70;;;;;;;0.67;100.00;97590.06;2054528;28;20225;-73
2021/12/05 04:23:47;;;;;;;25.83;21.08;;;;;;;0.68;100.00;97591.63;2062149;28;20601;-74
2021/12/05 04:24:51;;;;;;;27.52;22.33;;;;;;;0.65;100.00;97602.69;2061911;28;20248;-74
2021/12/05 04:25:54;;;;;;;25.70;22.35;;;;;;;0.64;100.00;97595.84;2069843;28;20686;-74
2021/12/05 04:26:59;;;;;;;25.00;22.30;;;;;;;0.60;100.00;97600.06;2078137;28;20223;-73
2021/12/05 04:28:01;;;;;;;25.48;22.35;;;;;;;0.59;100.00;97606.34;2061803;28;20262;-74
2021/12/05 04:29:04;;;;;;;25.67;22.27;;;;;;;0.54;100.00;97602.72;2070062;28;20725;-74
2021/12/05 04:30:08;;;;;;;26.73;23.13;;;;;;;0.51;100.00;97605.84;2069690;28;20240;-74
2021/12/05 04:31:10;;;;;;;25.00;22.35;;;;;;;0.51;100.00;97597.97;2063469;28;20242;-74
2021/12/05 04:32:12;;;;;;;25.77;23.05;;;;;;;0.49;100.00;97604.56;2053849;28;20312;-74
2021/12/05 04:33:13;;;;;;;27.27;23.40;;;;;;;0.47;100.00;97598.78;2053886;28;20304;-74
2021/12/05 04:34:15;;;;;;;27.87;22.73;;;;;;;0.48;100.00;97605.59;2061884;28;20229;-74
2021/12/05 04:35:17;;;;;;;24.83;21.88;;;;;;;0.46;100.00;97602.47;2054154;28;20224;-74
2021/12/05 04:36:21;;;;;;;24.52;22.00;;;;;;;0.44;100.00;97608.00;2054100;28;20225;-74
2021/12/05 04:37:23;;;;;;;25.48;22.88;;;;;;;0.45;100.00;97608.78;2061636;28;20228;-73
2021/12/05 04:38:26;;;;;;;24.33;21.80;;;;;;;0.40;100.00;97601.69;2061761;28;20229;-74
2021/12/05 04:39:28;;;;;;;25.00;22.33;;;;;;;0.43;100.00;97608.22;2054226;28;20314;-74
2021/12/05 04:40:32;;;;;;;27.50;23.00;;;;;;;0.37;100.00;97612.72;2053936;28;20662;-74
2021/12/05 04:41:38;;;;;;;27.25;22.17;;;;;;;0.31;100.00;97608.53;2062424;28;20650;-75
2021/12/05 04:42:44;;;;;;;28.00;23.15;;;;;;;0.30;100.00;97606.97;2061537;28;20686;-74
2021/12/05 04:43:48;;;;;;;26.20;23.30;;;;;;;0.27;100.00;97608.28;2054596;28;20320;-74
2021/12/05 04:44:50;;;;;;;26.53;22.33;;;;;;;0.23;100.00;97611.69;2061831;28;20221;-75
2021/12/05 04:45:51;;;;;;;24.52;22.13;;;;;;;0.26;100.00;97619.00;2054047;28;20684;-74
2021/12/05 04:46:53;;;;;;;23.93;21.53;;;;;;;0.32;100.00;97617.97;2057283;28;20592;-74
2021/12/05 04:47:55;;;;;;;22.77;20.55;;;;;;;0.26;100.00;97622.44;2061818;28;20580;-74
2021/12/05 04:48:59;;;;;;;25.52;22.08;;;;;;;0.22;100.00;97621.38;2069890;28;20232;-73
2021/12/05 04:50:02;;;;;;;24.92;22.45;;;;;;;0.23;100.00;97619.56;2062567;28;20609;-74
2021/12/05 04:51:08;;;;;;;23.95;21.48;;;;;;;0.26;100.00;97629.50;2062159;28;20228;-74
2021/12/05 04:52:10;;;;;;;25.05;22.55;;;;;;;0.25;100.00;97620.06;2077915;28;20312;-73
2021/12/05 04:53:12;;;;;;;26.83;22.55;;;;;;;0.32;100.00;97633.69;2077800;28;20222;-73
2021/12/05 04:54:15;;;;;;;24.02;21.58;;;;;;;0.24;100.00;97623.75;2069854;28;20655;-73
2021/12/05 04:55:19;;;;;;;24.58;22.20;;;;;;;0.18;100.00;97627.44;2070194;28;20575;-74
2021/12/05 04:56:22;;;;;;;24.50;22.13;;;;;;;0.14;100.00;97621.13;2069982;28;20587;-73
2021/12/05 04:57:25;;;;;;;24.13;21.73;;;;;;;0.11;100.00;97625.06;2069489;28;20690;-73
2021/12/05 04:58:28;;;;;;;24.75;22.35;;;;;;;0.11;100.00;97624.28;2069885;28;20232;-73
2021/12/05 04:59:34;;;;;;;24.55;21.95;;;;;;;0.03;100.00;97615.13;2061928;28;20661;-73
2021/12/05 05:00:39;;;;;;;25.73;23.05;;;;;;;0.04;100.00;97629.00;2069924;28;20244;-73
2021/12/05 05:01:41;;;;;;;25.73;22.80;;;;;;;0.03;100.00;97633.47;2069435;28;20255;-73
2021/12/05 05:02:42;;;;;;;25.10;22.55;;;;;;;0.02;100.00;97631.13;2069849;28;20232;-74
2021/12/05 05:03:45;;;;;;;23.98;21.52;;;;;;;-0.02;100.00;97641.31;2069759;28;20693;-73
2021/12/05 05:04:48;;;;;;;24.75;22.45;;;;;;;-0.02;100.00;97636.88;2069906;28;20224;-74
2021/12/05 05:05:55;;;;;;;24.73;22.20;;;;;;;-0.02;100.00;97639.47;2070599;28;20227;-74
2021/12/05 05:07:00;;;;;;;26.67;24.00;;;;;;;-0.06;100.00;97635.03;2070249;28;20247;-73
2021/12/05 05:08:02;;;;;;;27.15;24.40;;;;;;;-0.10;100.00;97628.72;2070566;28;20244;-73
2021/12/05 05:09:03;;;;;;;27.80;25.15;;;;;;;-0.11;100.00;97635.81;2070713;28;20220;-73
2021/12/05 05:10:09;;;;;;;27.85;24.92;;;;;;;-0.11;100.00;97635.81;2070751;28;20247;-73
2021/12/05 05:11:12;;;;;;;28.13;25.17;;;;;;;-0.08;100.00;97632.69;2070415;28;20617;-73
2021/12/05 05:12:15;;;;;;;27.63;24.40;;;;;;;-0.08;100.00;97632.69;2070535;28;20302;-73
2021/12/05 05:13:15;;;;;;;27.63;24.60;;;;;;;-0.05;100.00;97642.63;2069781;28;20220;-73
2021/12/05 05:14:19;;;;;;;27.33;23.43;;;;;;;0.02;100.00;97641.59;2069841;28;20228;-73
2021/12/05 05:15:22;;;;;;;27.45;24.15;;;;;;;-0.02;100.00;97647.34;2069839;28;20251;-73
2021/12/05 05:16:26;;;;;;;26.08;23.27;;;;;;;-0.02;100.00;97642.09;2069583;28;20224;-73
2021/12/05 05:17:27;;;;;;;27.95;24.95;;;;;;;0.01;100.00;97640.03;2070648;28;20694;-73
2021/12/05 05:18:37;;;;;;;26.57;23.73;;;;;;;0.02;100.00;97650.25;2070602;28;20630;-73
2021/12/05 05:19:40;;;;;;;26.80;23.65;;;;;;;-0.01;100.00;97648.91;2085751;28;20233;-73
2021/12/05 05:20:50;;;;;;;27.23;24.35;;;;;;;-0.02;100.00;97643.94;2085438;28;20637;-73
2021/12/05 05:22:00;;;;;;;27.38;24.50;;;;;;;-0.03;100.00;97651.03;2070605;28;20220;-73
2021/12/05 05:23:36;;;;;;;26.27;23.58;;;;;;;-0.04;100.00;97646.81;2069457;28;20276;-73
2021/12/05 05:29:13;;;;;;;32.72;24.20;;;;;;;0.13;100.00;97651.03;2078008;28;20222;-73
2021/12/05 05:45:30;;;;;;;28.13;25.13;;;;;;;0.01;100.00;97666.25;2064887;28;20604;-73
2021/12/05 05:46:49;;;;;;;27.55;24.58;;;;;;;-0.01;100.00;97667.28;2085084;28;20222;-73
2021/12/05 05:48:02;;;;;;;28.95;25.40;;;;;;;-0.03;100.00;97665.97;2085071;28;20232;-73
2021/12/05 05:49:13;;;;;;;27.55;24.55;;;;;;;-0.06;100.00;97669.13;2077312;28;20227;-73
2021/12/05 05:50:16;;;;;;;28.42;23.95;;;;;;;-0.11;100.00;97669.09;2083453;28;20228;-73
2021/12/05 05:51:18;;;;;;;27.80;24.60;;;;;;;-0.10;100.00;97668.84;2085163;28;20227;-73
2021/12/05 05:52:22;;;;;;;29.58;25.25;;;;;;;-0.13;100.00;97677.22;2085898;28;20226;-73
2021/12/05 05:53:24;;;;;;;29.23;25.05;;;;;;;-0.13;100.00;97677.22;2085619;28;20548;-72
2021/12/05 05:54:26;;;;;;;29.17;25.23;;;;;;;-0.14;100.00;97675.66;2085156;28;20235;-72
2021/12/05 05:55:26;;;;;;;30.88;25.80;;;;;;;-0.11;100.00;97679.59;2085353;28;20563;-72
2021/12/05 05:56:30;;;;;;;29.93;25.57;;;;;;;-0.14;100.00;97675.66;2101640;28;20237;-73
2021/12/05 05:57:37;;;;;;;27.45;24.55;;;;;;;-0.11;100.00;97680.38;2093077;28;20344;-73
2021/12/05 05:58:45;;;;;;;27.63;24.63;;;;;;;-0.09;100.00;97678.31;2084979;28;20246;-73
2021/12/05 05:59:52;;;;;;;27.70;24.83;;;;;;;-0.14;100.00;97680.91;2085926;28;20690;-73
2021/12/05 06:01:02;;;;;;;28.40;24.80;;;;;;;-0.18;100.00;97679.06;2085644;28;20227;-73
2021/12/05 06:03:21;;;;;;;28.33;24.52;;;;;;;-0.19;100.00;97680.88;2085585;28;20225;-73
2021/12/05 06:04:23;;;;;;;26.42;23.73;;;;;;;-0.20;100.00;97681.16;2084990;28;20218;-73
2021/12/05 06:05:25;;;;;;;27.58;24.58;;;;;;;-0.17;100.00;97686.69;2085808;28;20595;-73
2021/12/05 06:06:27;;;;;;;28.30;25.20;;;;;;;-0.18;100.00;97681.66;2101575;28;20366;-74
2021/12/05 06:07:29;;;;;;;27.50;24.45;;;;;;;-0.17;100.00;97686.69;2092923;28;20612;-73
2021/12/05 06:08:32;;;;;;;33.63;25.83;;;;;;;-0.20;100.00;97681.16;2085076;28;20241;-73
2021/12/05 06:09:33;;;;;;;28.77;25.02;;;;;;;-0.18;100.00;97689.53;2085232;28;20223;-73
2021/12/05 06:10:35;;;;;;;26.67;23.80;;;;;;;-0.13;100.00;97692.16;2085152;28;20222;-73
2021/12/05 06:11:38;;;;;;;27.13;24.23;;;;;;;-0.14;100.00;97682.75;2093407;28;20226;-73
2021/12/05 06:12:41;;;;;;;27.95;24.77;;;;;;;-0.15;100.00;97687.19;2100807;28;20283;-73
2021/12/05 06:13:44;;;;;;;27.25;24.25;;;;;;;-0.16;100.00;97692.69;2085790;28;20230;-73
2021/12/05 06:14:44;;;;;;;29.27;24.83;;;;;;;-0.22;100.00;97689.28;2085903;28;20265;-73
2021/12/05 06:15:47;;;;;;;28.10;24.27;;;;;;;-0.26;100.00;97688.22;2101650;28;20715;-73
2021/12/05 06:16:48;;;;;;;30.95;24.10;;;;;;;-0.28;100.00;97695.53;2093323;28;20229;-73
2021/12/05 06:17:50;;;;;;;29.13;25.67;;;;;;;-0.31;100.00;97696.06;2085252;28;20226;-73
2021/12/05 06:18:57;;;;;;;28.80;24.75;;;;;;;-0.32;100.00;97692.66;2101563;28;20225;-73
2021/12/05 06:19:59;;;;;;;29.67;25.17;;;;;;;-0.33;100.00;97692.94;2092217;28;20229;-73
2021/12/05 06:21:01;;;;;;;29.05;25.33;;;;;;;-0.33;100.00;97691.09;2076768;28;20686;-72
2021/12/05 06:22:03;;;;;;;29.80;25.05;;;;;;;-0.33;100.00;97692.94;2076725;28;20642;-73
2021/12/05 06:23:04;;;;;;;29.98;25.42;;;;;;;-0.34;100.00;97692.16;2076854;28;20227;-73
2021/12/05 06:24:05;;;;;;;34.92;26.48;;;;;;;-0.34;100.00;97700.00;2076713;28;20278;-73
2021/12/05 06:25:10;;;;;;;33.67;26.27;;;;;;;-0.37;100.00;97692.66;2076896;28;20273;-73
2021/12/05 06:26:19;;;;;;;28.98;25.88;;;;;;;-0.32;100.00;97691.88;2083831;28;20231;-73
2021/12/05 06:27:21;;;;;;;31.40;26.05;;;;;;;-0.35;100.00;97695.00;2084917;28;20592;-74
2021/12/05 06:28:30;;;;;;;34.25;27.40;;;;;;;-0.36;100.00;97702.06;2076384;28;20231;-72
2021/12/05 06:29:36;;;;;;;29.27;26.08;;;;;;;-0.34;100.00;97701.84;2084969;28;20231;-73
2021/12/05 06:30:47;;;;;;;28.55;25.45;;;;;;;-0.35;100.00;97700.25;2085370;28;20284;-73
2021/12/05 06:32:04;;;;;;;29.50;26.13;;;;;;;-0.36;100.00;97699.44;2085753;28;20233;-74
2021/12/05 06:39:49;;;;;;;30.48;26.58;;;;;;;-0.33;100.00;97698.16;2083249;28;20661;-74
2021/12/05 06:41:06;;;;;;;28.48;25.60;;;;;;;-0.32;100.00;97710.22;2085704;28;20227;-73
2021/12/05 06:42:24;;;;;;;30.20;25.67;;;;;;;-0.32;100.00;97704.97;2083530;28;20309;-73
2021/12/05 06:46:12;;;;;;;32.10;26.60;;;;;;;-0.30;100.00;97719.41;2076741;28;20223;-73
2021/12/05 06:47:16;;;;;;;31.60;27.35;;;;;;;-0.29;100.00;97714.94;2079049;28;20276;-73
2021/12/05 06:48:17;;;;;;;30.92;27.73;;;;;;;-0.31;100.00;97717.03;2077417;28;20306;-72
2021/12/05 06:49:19;;;;;;;32.03;28.55;;;;;;;-0.29;100.00;97715.72;2077210;28;20231;-74
2021/12/05 06:50:21;;;;;;;31.98;28.67;;;;;;;-0.26;100.00;97713.63;2077136;28;20306;-73
2021/12/05 06:51:23;;;;;;;32.90;28.83;;;;;;;-0.24;100.00;97714.97;2082217;28;20249;-72
2021/12/05 06:52:26;;;;;;;31.77;27.75;;;;;;;-0.22;100.00;97717.31;2076536;28;20603;-73
2021/12/05 06:53:26;;;;;;;31.42;28.13;;;;;;;-0.24;100.00;97714.97;2074433;28;20224;-73
2021/12/05 06:54:28;;;;;;;32.73;29.60;;;;;;;-0.21;100.00;97722.28;2071836;28;20291;-73
2021/12/05 06:55:29;;;;;;;34.15;30.33;;;;;;;-0.19;100.00;97725.44;2071798;28;20250;-73
2021/12/05 06:56:31;;;;;;;31.47;27.97;;;;;;;-0.13;100.00;97723.63;2071820;28;20239;-73
2021/12/05 06:57:33;;;;;;;33.70;30.02;;;;;;;-0.17;100.00;97723.38;2070992;28;20961;-73
2021/12/05 06:58:36;;;;;;;37.47;30.65;;;;;;;-0.20;100.00;97721.25;2063012;28;20326;-73
2021/12/05 06:59:39;;;;;;;34.00;30.52;;;;;;;-0.22;100.00;97723.34;2076850;28;20227;-72
2021/12/05 07:00:42;;;;;;;34.47;30.92;;;;;;;-0.20;100.00;97720.47;2080009;28;20627;-73
2021/12/05 07:01:44;;;;;;;54.20;30.30;;;;;;;-0.21;100.00;97722.28;2079412;28;20233;-73
2021/12/05 07:02:48;;;;;;;36.75;28.90;;;;;;;-0.20;100.00;97725.69;2079210;28;20231;-73
2021/12/05 07:03:50;;;;;;;32.07;28.70;;;;;;;-0.21;100.00;97724.91;2080016;28;20227;-73
2021/12/05 07:06:10;;;;;;;33.83;29.40;;;;;;;-0.19;100.00;97719.41;2057923;28;20240;-72